Terminal Aerodrome Forecast
Issued by NWS

Home | Current Version | Previous Version | Graphics & Text | Print | Product List | Glossary On
Versions: 1 2 3 4 5 6 7 8 9 10 11 12 13 14 15 16 17
000
FTUS41 KCLE 151901 AAA
TAFFDY
TAF AMD
KFDY 151901Z 1519/1618 27020G35KT P6SM SCT015 OVC040
     FM152100 28020G32KT P6SM OVC025
     FM160200 31012KT P6SM SCT015 OVC025
     FM160900 31008KT P6SM SCT025=

USA.gov is the U.S. government's official web portal to all federal, state and local government web resources and services.